08:15
Airports
History
Links
Donate
Help keep this website running!
PayPal
Bitcoin
This page is community maintained. The information is intended for PC simulator navigation or reference.
Always use approved charts for navigation.
EDNE
Erbach
Erbach (EDNE)
Erbach, Baden-Wurttemberg, Germany (89155)
4
Lat/Lng:48° 20' 27.41" N / 9° 54' 54.79" E
48.340948 / 9.915219
Elevation:1558'ft / 475mMSL
ID / ICAO:EDNE
Runways:1
Longest:03-21
Grass 644m / 2,112ft
Beacon:White-Green
Nearby Weather07:20 GMT 2018-02-24
Nearby weather at ETHL, LAUPHEIM located 8.2 nautical miles from EDNE
Altimeter: 29.97
Visibility: 3.7 statute miles
Wind: 17 knots (from 070°)
Temp: -5°c / 23°f
Humidity: 85.8%

METAR: ETHL 240720Z 07017KT 6000 DRSN OVC011 M05/M07 Q1015 GRN

(Powered by phpweather)
Nearby VORs <50NM
Nearby NDBs
Runway 03 / 21
Dimensions:643.7 x 50m 2112' x 164'ft
Surface:Grass
Edge Lights:Low intensity
Runway 03 [A]Runway 21 [B]
Heading:030°TH 210°TH
Lat:
Lng:
48° 20' 18.31"N
9° 54' 46.88"E
48° 20' 36.52"N
9° 55' 2.7"E
User Notes and Comments
48° 20' 27.41" N / 9° 54' 54.79" E
Distance To
Airport ID:
Nearby Airports
(C) LAUPHEIM 8.2 NM
ETHL ( WX ) S 181°
(U) Laichingen 16.6 NM
EDPJ NW 310°
(U) BIBERACH AN DER RISS 17.4 NM
EDMB SSW 203°
(C) Tannheim 24.4 NM
EDMT SSE 159°
(U) Giengen Brenz 24.5 NM
EDNG NE 34°
(U) MEMMINGEN ALLGAU 28.6 NM
EDJA SSE 148°
(U) Saulgau 28.6 NM
EDTU SW 221°
VFR Chart
Flight Planning at SkyVector.com